createdAt,value
2023-04-01T00:01:05.047Z,11.50
2023-04-01T00:03:50.697Z,11.50
2023-04-01T00:06:36.021Z,11.40
2023-04-01T00:09:21.767Z,11.40
2023-04-01T00:12:08.445Z,11.40
2023-04-01T00:14:56.766Z,11.40
2023-04-01T00:17:42.182Z,11.30
2023-04-01T00:20:30.952Z,11.30
2023-04-01T00:23:17.236Z,11.20
2023-04-01T00:26:04.232Z,11.20
2023-04-01T00:28:50.753Z,11.20
2023-04-01T00:31:36.171Z,11.20
2023-04-01T00:34:22.478Z,11.20
2023-04-01T00:37:09.084Z,11.20
2023-04-01T00:39:54.958Z,11.20
2023-04-01T00:42:43.001Z,11.20
2023-04-01T00:45:36.091Z,11.10
2023-04-01T00:48:29.938Z,11.10
2023-04-01T00:51:19.491Z,11.10
2023-04-01T00:54:06.543Z,11.10
2023-04-01T00:57:05.467Z,11.10
2023-04-01T00:59:53.937Z,11.10
2023-04-01T01:02:43.975Z,11.10
2023-04-01T01:05:58.914Z,11.10
2023-04-01T01:09:11.688Z,11.10
2023-04-01T01:12:09.104Z,11.10
2023-04-01T01:15:16.219Z,11.10
2023-04-01T01:18:22.279Z,11.00
2023-04-01T01:21:37.101Z,11.00
2023-04-01T01:25:00.836Z,11.00
2023-04-01T01:27:59.158Z,11.00
2023-04-01T01:31:00.998Z,11.00
2023-04-01T01:34:17.812Z,11.00
2023-04-01T01:37:12.906Z,11.00
2023-04-01T01:40:03.388Z,11.00
2023-04-01T01:42:55.412Z,10.90
2023-04-01T01:45:51.400Z,10.90
2023-04-01T01:48:38.183Z,11.00
2023-04-01T01:51:27.407Z,10.90
2023-04-01T01:54:14.856Z,11.00
2023-04-01T01:57:11.686Z,11.00
2023-04-01T02:00:13.893Z,10.90
2023-04-01T02:03:04.292Z,11.00
2023-04-01T02:05:52.588Z,11.00
2023-04-01T02:08:52.506Z,11.00
2023-04-01T02:11:50.239Z,11.00
2023-04-01T02:14:46.195Z,11.00
2023-04-01T02:17:34.742Z,11.00
2023-04-01T02:20:23.852Z,11.00
2023-04-01T02:23:13.111Z,11.10
2023-04-01T02:25:58.868Z,11.10
2023-04-01T02:28:46.290Z,11.10
2023-04-01T02:31:32.577Z,11.10
2023-04-01T02:34:20.565Z,11.10
2023-04-01T02:37:06.432Z,11.10
2023-04-01T02:39:51.811Z,11.10
2023-04-01T02:42:37.525Z,11.10
2023-04-01T02:45:23.185Z,11.10
2023-04-01T02:48:09.388Z,11.10
2023-04-01T02:50:55.227Z,11.20
2023-04-01T02:53:40.724Z,11.20
2023-04-01T02:56:27.430Z,11.20
2023-04-01T02:59:16.018Z,11.20
2023-04-01T03:02:01.220Z,11.20
2023-04-01T03:04:46.848Z,11.20
2023-04-01T03:07:32.114Z,11.30
2023-04-01T03:10:18.218Z,11.30
2023-04-01T03:13:03.572Z,11.40
2023-04-01T03:15:49.480Z,11.40
2023-04-01T03:18:39.619Z,11.40
2023-04-01T03:21:25.611Z,11.40
2023-04-01T03:24:11.223Z,11.50
2023-04-01T03:26:56.802Z,11.50
2023-04-01T03:29:42.040Z,11.50
2023-04-01T03:32:28.728Z,11.50
2023-04-01T03:35:14.941Z,11.50
2023-04-01T03:38:07.237Z,11.50
2023-04-01T03:40:53.687Z,11.50
2023-04-01T03:43:39.346Z,11.60
2023-04-01T03:46:25.762Z,11.60
2023-04-01T03:49:12.797Z,11.60
2023-04-01T03:51:58.336Z,11.60
2023-04-01T03:54:43.739Z,11.70
2023-04-01T03:57:32.153Z,11.70
2023-04-01T04:00:23.503Z,11.70
2023-04-01T04:03:13.506Z,11.70
2023-04-01T04:05:59.225Z,11.70
2023-04-01T04:08:47.937Z,11.70
2023-04-01T04:11:35.947Z,11.70
2023-04-01T04:14:22.100Z,11.80
2023-04-01T04:17:09.332Z,11.80
2023-04-01T04:19:55.152Z,11.80
2023-04-01T04:22:41.136Z,11.80
2023-04-01T04:25:29.199Z,11.80
2023-04-01T04:28:17.456Z,11.80
2023-04-01T04:31:06.184Z,11.80
2023-04-01T04:33:54.149Z,11.80
2023-04-01T04:36:39.775Z,11.80
2023-04-01T04:39:26.400Z,11.80
2023-04-01T04:42:12.787Z,11.80
2023-04-01T04:44:58.670Z,11.80
2023-04-01T04:47:44.706Z,11.80
2023-04-01T04:50:31.584Z,11.70
2023-04-01T04:53:20.172Z,11.70
2023-04-01T04:56:05.857Z,11.70
2023-04-01T04:59:01.592Z,11.80
2023-04-01T05:01:59.586Z,11.80
2023-04-01T05:04:45.776Z,11.70
2023-04-01T05:07:31.567Z,11.70
2023-04-01T05:10:18.859Z,11.70
2023-04-01T05:13:05.316Z,11.70
2023-04-01T05:15:51.551Z,11.70
2023-04-01T05:18:37.264Z,11.70
2023-04-01T05:21:26.098Z,11.70
2023-04-01T05:24:13.214Z,11.60
2023-04-01T05:26:59.879Z,11.60
2023-04-01T05:29:47.342Z,11.60
2023-04-01T05:32:53.649Z,11.60
2023-04-01T05:35:40.261Z,11.60
2023-04-01T05:38:25.570Z,11.60
2023-04-01T05:41:11.045Z,11.60
2023-04-01T05:44:00.571Z,11.60
2023-04-01T05:46:58.867Z,11.60
2023-04-01T05:49:48.206Z,11.60
2023-04-01T05:52:34.929Z,11.60
2023-04-01T05:55:24.063Z,11.60
2023-04-01T05:58:09.954Z,11.60
2023-04-01T06:01:10.114Z,11.60
2023-04-01T06:03:59.084Z,11.60
2023-04-01T06:06:46.183Z,11.60
2023-04-01T06:09:32.556Z,11.70
2023-04-01T06:12:47.044Z,11.70
2023-04-01T06:16:07.133Z,11.70
2023-04-01T06:19:16.302Z,11.70
2023-04-01T06:22:20.975Z,11.70
2023-04-01T06:25:38.324Z,11.80
2023-04-01T06:28:54.007Z,11.70
2023-04-01T06:32:01.675Z,11.70
2023-04-01T06:35:24.481Z,11.70
2023-04-01T06:38:44.726Z,11.70
2023-04-01T06:41:58.587Z,11.80
2023-04-01T06:45:09.864Z,11.70
2023-04-01T06:48:32.416Z,11.80
2023-04-01T06:52:01.001Z,11.80
2023-04-01T06:55:34.327Z,11.80
2023-04-01T06:58:40.791Z,11.70
2023-04-01T07:01:41.112Z,11.70
2023-04-01T07:04:40.817Z,11.70
2023-04-01T07:07:45.155Z,11.70
2023-04-01T07:10:36.975Z,11.70
2023-04-01T07:13:50.533Z,11.70
2023-04-01T07:16:47.120Z,11.80
2023-04-01T07:19:48.160Z,11.70
2023-04-01T07:22:40.180Z,11.80
2023-04-01T07:25:41.209Z,11.80
2023-04-01T07:28:47.642Z,11.90
2023-04-01T07:32:14.686Z,11.90
2023-04-01T07:35:40.901Z,11.90
2023-04-01T07:38:46.563Z,11.90
2023-04-01T07:41:51.848Z,12.00
2023-04-01T07:45:10.904Z,12.10
2023-04-01T07:48:32.330Z,12.10
2023-04-01T07:51:44.214Z,12.10
2023-04-01T07:54:36.981Z,12.20
2023-04-01T07:57:44.715Z,12.20
2023-04-01T08:00:48.834Z,12.30
2023-04-01T08:03:52.764Z,12.30
2023-04-01T08:06:56.821Z,12.30
2023-04-01T08:09:51.993Z,12.30
2023-04-01T08:13:34.190Z,12.20
2023-04-01T08:17:16.932Z,12.30
2023-04-01T08:20:06.138Z,12.40
2023-04-01T08:23:11.271Z,12.50
2023-04-01T08:26:17.282Z,12.50
2023-04-01T08:29:13.264Z,12.40
2023-04-01T08:32:13.919Z,12.50
2023-04-01T08:35:42.028Z,12.50
2023-04-01T08:38:54.504Z,12.50
2023-04-01T08:41:42.734Z,12.50
2023-04-01T08:45:43.103Z,12.50
2023-04-01T08:48:46.348Z,12.50
2023-04-01T08:52:07.807Z,12.50
2023-04-01T08:55:11.789Z,12.60
2023-04-01T08:58:20.722Z,12.60
2023-04-01T09:02:08.897Z,12.70
2023-04-01T09:05:44.535Z,12.70
2023-04-01T09:08:35.877Z,12.80
2023-04-01T09:11:56.796Z,12.90
2023-04-01T09:15:23.572Z,12.90
2023-04-01T09:18:25.938Z,13.00
2023-04-01T09:21:11.627Z,12.90
2023-04-01T09:24:10.244Z,12.90
2023-04-01T09:27:24.640Z,13.00
2023-04-01T09:30:36.041Z,13.10
2023-04-01T09:33:57.597Z,13.20
2023-04-01T09:40:47.125Z,13.30
2023-04-01T09:44:00.136Z,13.30
2023-04-01T09:47:23.153Z,13.20
2023-04-01T09:50:37.930Z,13.20
2023-04-01T09:53:40.563Z,13.20
2023-04-01T09:57:02.114Z,13.30
2023-04-01T09:59:55.429Z,13.40
2023-04-01T10:03:29.949Z,13.50
2023-04-01T10:06:46.491Z,13.60
2023-04-01T10:10:04.329Z,13.60
2023-04-01T10:13:27.502Z,13.60
2023-04-01T10:16:27.346Z,13.60
2023-04-01T10:19:40.720Z,13.70
2023-04-01T10:22:35.085Z,13.80
2023-04-01T10:25:39.836Z,13.90
2023-04-01T10:29:04.705Z,13.80
2023-04-01T10:32:22.674Z,13.80
2023-04-01T10:35:27.908Z,13.80
2023-04-01T10:38:46.234Z,13.80
2023-04-01T10:42:09.294Z,13.80
2023-04-01T10:46:09.229Z,13.70
2023-04-01T10:49:34.029Z,13.70
2023-04-01T10:52:42.587Z,13.50
2023-04-01T10:56:21.625Z,13.60
2023-04-01T11:00:08.843Z,13.50
2023-04-01T11:03:39.224Z,13.50
2023-04-01T11:07:02.736Z,13.50
2023-04-01T11:10:23.185Z,13.30
2023-04-01T11:13:38.368Z,13.30
2023-04-01T11:16:55.894Z,13.30
2023-04-01T11:20:00.726Z,13.50
2023-04-01T11:23:09.922Z,13.60
2023-04-01T11:26:38.214Z,13.70
2023-04-01T11:30:17.802Z,13.80
2023-04-01T11:33:12.604Z,13.80
2023-04-01T11:36:07.288Z,13.90
2023-04-01T11:39:22.662Z,13.90
2023-04-01T11:42:48.961Z,13.90
2023-04-01T11:46:07.308Z,13.80
2023-04-01T11:48:59.024Z,13.90
2023-04-01T11:52:12.928Z,14.00
2023-04-01T11:55:14.428Z,14.10
2023-04-01T11:58:03.385Z,14.20
2023-04-01T12:01:04.515Z,14.30
2023-04-01T12:04:06.401Z,14.30
2023-04-01T12:07:09.868Z,14.40
2023-04-01T12:10:18.438Z,14.50
2023-04-01T12:13:38.201Z,14.50
2023-04-01T12:16:53.997Z,14.70
2023-04-01T12:19:48.540Z,14.70
2023-04-01T12:23:00.996Z,14.70
2023-04-01T12:26:07.513Z,14.70
2023-04-01T12:29:15.593Z,14.80
2023-04-01T12:32:36.178Z,14.90
2023-04-01T12:35:31.395Z,15.00
2023-04-01T12:38:44.358Z,15.10
2023-04-01T12:41:40.561Z,15.30
2023-04-01T12:45:16.638Z,15.20
2023-04-01T12:48:42.168Z,15.30
2023-04-01T12:51:48.206Z,15.60
2023-04-01T12:54:51.711Z,15.70
2023-04-01T12:58:02.349Z,15.80
2023-04-01T13:00:57.585Z,15.80
2023-04-01T13:04:19.405Z,15.70
2023-04-01T13:07:51.647Z,15.50
2023-04-01T13:10:58.756Z,15.30
2023-04-01T13:14:11.973Z,15.00
2023-04-01T13:17:19.361Z,14.80
2023-04-01T13:20:13.788Z,14.70
2023-04-01T13:23:14.321Z,14.60
2023-04-01T13:26:23.646Z,14.40
2023-04-01T13:29:16.752Z,14.30
2023-04-01T13:32:43.315Z,14.30
2023-04-01T13:35:45.059Z,14.20
2023-04-01T13:38:59.765Z,14.00
2023-04-01T13:41:51.004Z,13.90
2023-04-01T13:44:46.756Z,13.80
2023-04-01T13:48:03.457Z,13.80
2023-04-01T13:51:16.479Z,13.80
2023-04-01T13:54:13.802Z,13.80
2023-04-01T13:57:33.084Z,13.80
2023-04-01T14:00:49.455Z,13.70
2023-04-01T14:04:13.902Z,13.80
2023-04-01T14:07:21.209Z,13.90
2023-04-01T14:10:13.278Z,14.00
2023-04-01T14:13:10.697Z,14.00
2023-04-01T14:16:33.811Z,14.10
2023-04-01T14:19:40.819Z,14.20
2023-04-01T14:23:08.717Z,14.10
2023-04-01T14:26:21.989Z,14.00
2023-04-01T14:29:39.341Z,13.90
2023-04-01T14:32:43.258Z,13.80
2023-04-01T14:35:53.940Z,13.80
2023-04-01T14:38:46.923Z,13.80
2023-04-01T14:41:42.107Z,13.80
2023-04-01T14:44:39.762Z,13.90
2023-04-01T14:47:50.707Z,14.00
2023-04-01T14:50:52.003Z,14.00
2023-04-01T14:53:43.486Z,14.00
2023-04-01T14:56:50.540Z,13.90
2023-04-01T14:59:42.236Z,13.80
2023-04-01T15:02:38.350Z,13.60
2023-04-01T15:05:50.189Z,13.50
2023-04-01T15:08:56.368Z,13.40
2023-04-01T15:11:54.932Z,13.40
2023-04-01T15:15:18.337Z,13.30
2023-04-01T15:18:31.485Z,13.30
2023-04-01T15:21:35.614Z,13.20
2023-04-01T15:24:45.773Z,13.10
2023-04-01T15:27:52.961Z,13.00
2023-04-01T15:31:21.386Z,13.00
2023-04-01T15:34:22.512Z,13.00
2023-04-01T15:37:21.327Z,13.00
2023-04-01T15:40:23.789Z,13.00
2023-04-01T15:43:23.224Z,12.90
2023-04-01T15:46:30.671Z,12.90
2023-04-01T15:49:38.853Z,12.90
2023-04-01T15:53:05.341Z,12.80
2023-04-01T15:56:17.075Z,12.80
2023-04-01T15:59:21.566Z,12.80
2023-04-01T16:02:19.323Z,12.80
2023-04-01T16:05:38.689Z,12.80
2023-04-01T16:08:49.314Z,12.80
2023-04-01T16:12:00.345Z,12.80
2023-04-01T16:15:14.241Z,12.70
2023-04-01T16:18:20.660Z,12.50
2023-04-01T16:21:34.130Z,12.40
2023-04-01T16:24:39.756Z,12.30
2023-04-01T16:28:17.554Z,12.30
2023-04-01T16:31:09.788Z,12.20
2023-04-01T16:34:22.261Z,12.20
2023-04-01T16:37:21.102Z,12.20
2023-04-01T16:40:41.012Z,12.20
2023-04-01T16:43:37.005Z,12.20
2023-04-01T16:46:44.075Z,12.20
2023-04-01T16:49:37.684Z,12.20
2023-04-01T16:52:37.741Z,12.10
2023-04-01T16:55:34.756Z,12.20
2023-04-01T16:58:26.486Z,12.10
2023-04-01T17:01:25.726Z,12.10
2023-04-01T17:04:54.192Z,12.10
2023-04-01T17:07:56.710Z,12.10
2023-04-01T17:10:59.195Z,12.10
2023-04-01T17:13:56.055Z,12.10
2023-04-01T17:16:53.762Z,12.00
2023-04-01T17:19:56.576Z,12.00
2023-04-01T17:23:07.687Z,12.00
2023-04-01T17:26:17.601Z,12.00
2023-04-01T17:29:41.740Z,12.00
2023-04-01T17:33:02.741Z,11.90
2023-04-01T17:36:09.862Z,11.90
2023-04-01T17:39:49.519Z,11.90
2023-04-01T17:43:24.685Z,11.90
2023-04-01T17:46:47.614Z,11.80
2023-04-01T17:49:51.639Z,11.80
2023-04-01T17:52:45.456Z,11.70
2023-04-01T17:55:51.708Z,11.70
2023-04-01T17:58:46.677Z,11.70
2023-04-01T18:01:44.106Z,11.60
2023-04-01T18:05:03.214Z,11.60
2023-04-01T18:08:16.253Z,11.60
2023-04-01T18:11:28.083Z,11.60
2023-04-01T18:14:49.127Z,11.50
2023-04-01T18:18:27.348Z,11.50
2023-04-01T18:21:32.109Z,11.50
2023-04-01T18:24:24.308Z,11.40
2023-04-01T18:27:31.396Z,11.40
2023-04-01T18:30:19.490Z,11.30
2023-04-01T18:33:26.431Z,11.30
2023-04-01T18:36:25.677Z,11.30
2023-04-01T18:39:31.345Z,11.30
2023-04-01T18:42:24.360Z,11.30
2023-04-01T18:45:46.057Z,11.30
2023-04-01T18:48:57.456Z,11.30
2023-04-01T18:51:54.969Z,11.20
2023-04-01T18:54:50.921Z,11.20
2023-04-01T18:58:21.755Z,11.20
2023-04-01T19:01:35.964Z,11.20
2023-04-01T19:04:37.434Z,11.20
2023-04-01T19:07:35.285Z,11.20
2023-04-01T19:10:47.349Z,11.20
2023-04-01T19:13:48.993Z,11.20
2023-04-01T19:16:54.927Z,11.20
2023-04-01T19:20:01.897Z,11.10
2023-04-01T19:23:17.003Z,11.10
2023-04-01T19:26:07.801Z,11.20
2023-04-01T19:28:58.548Z,11.10
2023-04-01T19:32:17.888Z,11.10
2023-04-01T19:35:20.843Z,11.10
2023-04-01T19:38:25.800Z,11.00
2023-04-01T19:41:21.442Z,11.00
2023-04-01T19:44:45.887Z,10.90
2023-04-01T19:47:46.566Z,10.90
2023-04-01T19:50:56.652Z,10.90
2023-04-01T19:54:23.802Z,10.80
2023-04-01T19:57:45.438Z,10.80
2023-04-01T20:00:52.989Z,10.80
2023-04-01T20:03:58.535Z,10.70
2023-04-01T20:06:59.992Z,10.70
2023-04-01T20:09:57.443Z,10.70
2023-04-01T20:13:07.651Z,10.60
2023-04-01T20:16:08.145Z,10.60
2023-04-01T20:18:59.162Z,10.60
2023-04-01T20:21:48.429Z,10.60
2023-04-01T20:24:47.041Z,10.50
2023-04-01T20:27:43.245Z,10.60
2023-04-01T20:30:39.865Z,10.50
2023-04-01T20:33:54.843Z,10.50
2023-04-01T20:36:39.927Z,10.50
2023-04-01T20:40:11.937Z,10.50
2023-04-01T20:43:16.233Z,10.50
2023-04-01T20:46:10.378Z,10.50
2023-04-01T20:49:07.776Z,10.40
2023-04-01T20:52:16.520Z,10.40
2023-04-01T20:55:31.241Z,10.30
2023-04-01T20:58:53.833Z,10.30
2023-04-01T21:01:59.043Z,10.30
2023-04-01T21:05:16.819Z,10.20
2023-04-01T21:08:17.267Z,10.20
2023-04-01T21:11:38.017Z,10.20
2023-04-01T21:14:59.867Z,10.20
2023-04-01T21:18:26.453Z,10.20
2023-04-01T21:21:15.262Z,10.10
2023-04-01T21:24:34.087Z,10.10
2023-04-01T21:27:49.847Z,10.00
2023-04-01T21:30:47.435Z,10.00
2023-04-01T21:33:49.284Z,10.00
2023-04-01T21:36:49.071Z,10.00
2023-04-01T21:40:10.492Z,9.90
2023-04-01T21:43:01.894Z,9.90
2023-04-01T21:46:15.149Z,9.80
2023-04-01T21:49:20.824Z,9.80
2023-04-01T21:52:34.585Z,9.80
2023-04-01T21:55:48.521Z,9.80
2023-04-01T21:59:02.910Z,9.80
2023-04-01T22:02:16.298Z,9.80
2023-04-01T22:05:11.800Z,9.70
2023-04-01T22:08:42.745Z,9.70
2023-04-01T22:11:56.565Z,9.70
2023-04-01T22:14:57.538Z,9.60
2023-04-01T22:18:08.301Z,9.60
2023-04-01T22:21:17.322Z,9.50
2023-04-01T22:24:24.209Z,9.50
2023-04-01T22:27:34.341Z,9.50
2023-04-01T22:30:19.815Z,9.50
2023-04-01T22:33:08.528Z,9.50
2023-04-01T22:36:24.605Z,9.50
2023-04-01T22:39:23.754Z,9.50
2023-04-01T22:42:42.064Z,9.40
2023-04-01T22:46:01.849Z,9.40
2023-04-01T22:48:59.244Z,9.40
2023-04-01T22:52:17.330Z,9.40
2023-04-01T22:55:22.845Z,9.40
2023-04-01T22:58:16.297Z,9.30
2023-04-01T23:01:08.637Z,9.30
2023-04-01T23:03:55.224Z,9.30
2023-04-01T23:06:47.612Z,9.30
2023-04-01T23:09:35.064Z,9.30
2023-04-01T23:12:22.026Z,9.30
2023-04-01T23:15:15.742Z,9.30
2023-04-01T23:18:13.731Z,9.30
2023-04-01T23:21:19.852Z,9.30
2023-04-01T23:24:36.325Z,9.20
2023-04-01T23:27:26.398Z,9.20
2023-04-01T23:30:41.432Z,9.20
2023-04-01T23:33:32.319Z,9.20
2023-04-01T23:36:18.284Z,9.20
2023-04-01T23:39:23.706Z,9.20
2023-04-01T23:42:14.025Z,9.10
2023-04-01T23:45:18.179Z,9.10
2023-04-01T23:48:03.786Z,9.10
2023-04-01T23:50:49.210Z,9.10
2023-04-01T23:53:35.813Z,9.10
2023-04-01T23:56:21.939Z,9.10
2023-04-01T23:59:21.560Z,9.00
